sensor_id;sensor_type;location;lat;lon;timestamp;P1;durP1;ratioP1;P2;durP2;ratioP2
5171;SDS011;2605;49.770;9.868;2024-01-15T00:00:39;29.77;;;14.87;;
5171;SDS011;2605;49.770;9.868;2024-01-15T00:03:05;20.07;;;9.10;;
5171;SDS011;2605;49.770;9.868;2024-01-15T00:05:30;29.67;;;14.77;;
5171;SDS011;2605;49.770;9.868;2024-01-15T00:07:56;25.33;;;11.87;;
5171;SDS011;2605;49.770;9.868;2024-01-15T00:10:21;42.60;;;16.83;;
5171;SDS011;2605;49.770;9.868;2024-01-15T00:12:47;28.57;;;13.33;;
5171;SDS011;2605;49.770;9.868;2024-01-15T00:15:13;34.57;;;16.80;;
5171;SDS011;2605;49.770;9.868;2024-01-15T00:17:39;35.40;;;15.80;;
5171;SDS011;2605;49.770;9.868;2024-01-15T00:20:04;32.57;;;15.23;;
5171;SDS011;2605;49.770;9.868;2024-01-15T00:22:30;27.23;;;12.30;;
5171;SDS011;2605;49.770;9.868;2024-01-15T00:24:57;47.47;;;16.83;;
5171;SDS011;2605;49.770;9.868;2024-01-15T00:27:22;30.73;;;12.40;;
5171;SDS011;2605;49.770;9.868;2024-01-15T00:29:48;24.30;;;11.70;;
5171;SDS011;2605;49.770;9.868;2024-01-15T00:32:15;31.30;;;13.83;;
5171;SDS011;2605;49.770;9.868;2024-01-15T00:34:41;40.67;;;15.90;;
5171;SDS011;2605;49.770;9.868;2024-01-15T00:37:06;31.47;;;15.47;;
5171;SDS011;2605;49.770;9.868;2024-01-15T00:39:32;24.43;;;8.97;;
5171;SDS011;2605;49.770;9.868;2024-01-15T00:41:58;33.37;;;15.23;;
5171;SDS011;2605;49.770;9.868;2024-01-15T00:44:26;30.87;;;13.30;;
5171;SDS011;2605;49.770;9.868;2024-01-15T00:46:52;28.23;;;13.13;;
5171;SDS011;2605;49.770;9.868;2024-01-15T00:49:17;41.87;;;15.47;;
5171;SDS011;2605;49.770;9.868;2024-01-15T00:51:43;43.13;;;16.53;;
5171;SDS011;2605;49.770;9.868;2024-01-15T00:54:11;41.07;;;16.03;;
5171;SDS011;2605;49.770;9.868;2024-01-15T00:56:36;30.30;;;13.83;;
5171;SDS011;2605;49.770;9.868;2024-01-15T00:59:02;24.33;;;11.70;;
5171;SDS011;2605;49.770;9.868;2024-01-15T01:01:28;38.63;;;14.80;;
5171;SDS011;2605;49.770;9.868;2024-01-15T01:03:53;36.03;;;15.57;;
5171;SDS011;2605;49.770;9.868;2024-01-15T01:06:19;35.70;;;15.50;;
5171;SDS011;2605;49.770;9.868;2024-01-15T01:08:44;33.00;;;11.97;;
5171;SDS011;2605;49.770;9.868;2024-01-15T01:11:13;41.43;;;13.30;;
5171;SDS011;2605;49.770;9.868;2024-01-15T01:13:39;41.17;;;17.70;;
5171;SDS011;2605;49.770;9.868;2024-01-15T01:16:05;25.27;;;11.60;;
5171;SDS011;2605;49.770;9.868;2024-01-15T01:18:30;28.30;;;11.33;;
5171;SDS011;2605;49.770;9.868;2024-01-15T01:20:56;44.03;;;17.40;;
5171;SDS011;2605;49.770;9.868;2024-01-15T01:23:21;47.03;;;21.63;;
5171;SDS011;2605;49.770;9.868;2024-01-15T01:25:47;28.50;;;10.53;;
5171;SDS011;2605;49.770;9.868;2024-01-15T01:28:15;18.43;;;8.83;;
5171;SDS011;2605;49.770;9.868;2024-01-15T01:30:41;24.37;;;8.80;;
5171;SDS011;2605;49.770;9.868;2024-01-15T01:33:06;33.20;;;10.30;;
5171;SDS011;2605;49.770;9.868;2024-01-15T01:35:32;53.10;;;14.90;;
5171;SDS011;2605;49.770;9.868;2024-01-15T01:37:57;42.40;;;14.47;;
5171;SDS011;2605;49.770;9.868;2024-01-15T01:40:23;29.93;;;13.03;;
5171;SDS011;2605;49.770;9.868;2024-01-15T01:42:51;20.90;;;9.00;;
5171;SDS011;2605;49.770;9.868;2024-01-15T01:45:17;41.63;;;13.23;;
5171;SDS011;2605;49.770;9.868;2024-01-15T01:47:42;29.87;;;14.13;;
5171;SDS011;2605;49.770;9.868;2024-01-15T01:50:08;28.20;;;10.43;;
5171;SDS011;2605;49.770;9.868;2024-01-15T01:52:34;34.07;;;12.93;;
5171;SDS011;2605;49.770;9.868;2024-01-15T01:55:00;29.37;;;13.80;;
5171;SDS011;2605;49.770;9.868;2024-01-15T01:57:27;23.53;;;10.97;;
5171;SDS011;2605;49.770;9.868;2024-01-15T01:59:54;36.70;;;14.17;;
5171;SDS011;2605;49.770;9.868;2024-01-15T02:02:20;21.73;;;8.03;;
5171;SDS011;2605;49.770;9.868;2024-01-15T02:04:47;24.83;;;9.60;;
5171;SDS011;2605;49.770;9.868;2024-01-15T02:07:14;18.00;;;10.43;;
5171;SDS011;2605;49.770;9.868;2024-01-15T02:09:42;26.00;;;12.27;;
5171;SDS011;2605;49.770;9.868;2024-01-15T02:12:09;18.03;;;9.20;;
5171;SDS011;2605;49.770;9.868;2024-01-15T02:14:34;27.57;;;13.13;;
5171;SDS011;2605;49.770;9.868;2024-01-15T02:17:00;24.67;;;9.73;;
5171;SDS011;2605;49.770;9.868;2024-01-15T02:19:28;20.23;;;8.80;;
5171;SDS011;2605;49.770;9.868;2024-01-15T02:21:54;16.87;;;11.63;;
5171;SDS011;2605;49.770;9.868;2024-01-15T02:24:19;17.67;;;9.63;;
5171;SDS011;2605;49.770;9.868;2024-01-15T02:26:45;29.37;;;14.47;;
5171;SDS011;2605;49.770;9.868;2024-01-15T02:29:10;25.37;;;12.13;;
5171;SDS011;2605;49.770;9.868;2024-01-15T02:31:37;29.63;;;14.97;;
5171;SDS011;2605;49.770;9.868;2024-01-15T02:34:02;10.20;;;6.23;;
5171;SDS011;2605;49.770;9.868;2024-01-15T02:36:28;13.97;;;6.73;;
5171;SDS011;2605;49.770;9.868;2024-01-15T02:38:53;27.77;;;12.90;;
5171;SDS011;2605;49.770;9.868;2024-01-15T02:41:20;25.77;;;13.30;;
5171;SDS011;2605;49.770;9.868;2024-01-15T02:43:45;21.23;;;9.60;;
5171;SDS011;2605;49.770;9.868;2024-01-15T02:46:11;28.57;;;13.20;;
5171;SDS011;2605;49.770;9.868;2024-01-15T02:48:36;13.30;;;5.40;;
5171;SDS011;2605;49.770;9.868;2024-01-15T02:51:02;26.47;;;10.80;;
5171;SDS011;2605;49.770;9.868;2024-01-15T02:53:28;16.57;;;7.13;;
5171;SDS011;2605;49.770;9.868;2024-01-15T02:55:53;24.00;;;12.70;;
5171;SDS011;2605;49.770;9.868;2024-01-15T02:58:19;33.20;;;11.87;;
5171;SDS011;2605;49.770;9.868;2024-01-15T03:00:46;20.57;;;11.93;;
5171;SDS011;2605;49.770;9.868;2024-01-15T03:03:11;13.53;;;7.17;;
5171;SDS011;2605;49.770;9.868;2024-01-15T03:05:37;20.67;;;9.90;;
5171;SDS011;2605;49.770;9.868;2024-01-15T03:08:03;15.83;;;9.53;;
5171;SDS011;2605;49.770;9.868;2024-01-15T03:10:28;14.80;;;8.67;;
5171;SDS011;2605;49.770;9.868;2024-01-15T03:12:54;24.43;;;11.70;;
5171;SDS011;2605;49.770;9.868;2024-01-15T03:15:19;20.20;;;9.73;;
5171;SDS011;2605;49.770;9.868;2024-01-15T03:17:45;24.00;;;10.50;;
5171;SDS011;2605;49.770;9.868;2024-01-15T03:20:10;22.60;;;10.27;;
5171;SDS011;2605;49.770;9.868;2024-01-15T03:22:37;24.13;;;9.53;;
5171;SDS011;2605;49.770;9.868;2024-01-15T03:25:03;17.50;;;7.43;;
5171;SDS011;2605;49.770;9.868;2024-01-15T03:27:29;17.27;;;6.30;;
5171;SDS011;2605;49.770;9.868;2024-01-15T03:29:57;20.37;;;9.93;;
5171;SDS011;2605;49.770;9.868;2024-01-15T03:32:22;19.77;;;9.43;;
5171;SDS011;2605;49.770;9.868;2024-01-15T03:34:48;20.67;;;9.03;;
5171;SDS011;2605;49.770;9.868;2024-01-15T03:37:17;19.80;;;9.43;;
5171;SDS011;2605;49.770;9.868;2024-01-15T03:39:42;27.83;;;13.03;;
5171;SDS011;2605;49.770;9.868;2024-01-15T03:42:08;16.53;;;7.77;;
5171;SDS011;2605;49.770;9.868;2024-01-15T03:44:33;13.17;;;6.87;;
5171;SDS011;2605;49.770;9.868;2024-01-15T03:46:59;19.37;;;10.37;;
5171;SDS011;2605;49.770;9.868;2024-01-15T03:49:24;18.13;;;8.33;;
5171;SDS011;2605;49.770;9.868;2024-01-15T03:51:50;14.80;;;8.80;;
5171;SDS011;2605;49.770;9.868;2024-01-15T03:54:15;11.00;;;6.70;;
5171;SDS011;2605;49.770;9.868;2024-01-15T03:56:41;23.53;;;9.40;;
5171;SDS011;2605;49.770;9.868;2024-01-15T03:59:06;21.63;;;10.93;;
5171;SDS011;2605;49.770;9.868;2024-01-15T04:01:32;19.57;;;8.17;;
5171;SDS011;2605;49.770;9.868;2024-01-15T04:03:57;15.90;;;8.30;;
5171;SDS011;2605;49.770;9.868;2024-01-15T04:06:23;20.67;;;8.63;;
5171;SDS011;2605;49.770;9.868;2024-01-15T04:08:48;17.50;;;9.17;;
5171;SDS011;2605;49.770;9.868;2024-01-15T04:11:13;14.40;;;8.00;;
5171;SDS011;2605;49.770;9.868;2024-01-15T04:13:39;19.60;;;9.30;;
5171;SDS011;2605;49.770;9.868;2024-01-15T04:16:04;16.90;;;9.60;;
5171;SDS011;2605;49.770;9.868;2024-01-15T04:18:30;23.93;;;11.07;;
5171;SDS011;2605;49.770;9.868;2024-01-15T04:20:55;8.50;;;4.60;;
5171;SDS011;2605;49.770;9.868;2024-01-15T04:23:21;14.70;;;6.93;;
5171;SDS011;2605;49.770;9.868;2024-01-15T04:25:49;25.03;;;9.73;;
5171;SDS011;2605;49.770;9.868;2024-01-15T04:28:15;32.03;;;11.63;;
5171;SDS011;2605;49.770;9.868;2024-01-15T04:30:40;27.73;;;11.90;;
5171;SDS011;2605;49.770;9.868;2024-01-15T04:33:11;13.73;;;6.90;;
5171;SDS011;2605;49.770;9.868;2024-01-15T04:35:37;16.07;;;8.93;;
5171;SDS011;2605;49.770;9.868;2024-01-15T04:38:03;21.70;;;8.13;;
5171;SDS011;2605;49.770;9.868;2024-01-15T04:40:31;28.47;;;10.60;;
5171;SDS011;2605;49.770;9.868;2024-01-15T04:42:56;13.10;;;5.97;;
5171;SDS011;2605;49.770;9.868;2024-01-15T04:45:22;24.00;;;11.33;;
5171;SDS011;2605;49.770;9.868;2024-01-15T04:47:53;19.10;;;6.50;;
5171;SDS011;2605;49.770;9.868;2024-01-15T04:50:18;27.77;;;10.73;;
5171;SDS011;2605;49.770;9.868;2024-01-15T04:52:44;24.87;;;11.60;;
5171;SDS011;2605;49.770;9.868;2024-01-15T04:55:09;27.57;;;9.97;;
5171;SDS011;2605;49.770;9.868;2024-01-15T04:57:35;24.27;;;10.17;;
5171;SDS011;2605;49.770;9.868;2024-01-15T05:00:00;22.30;;;10.63;;
5171;SDS011;2605;49.770;9.868;2024-01-15T05:02:26;34.23;;;13.57;;
5171;SDS011;2605;49.770;9.868;2024-01-15T05:04:51;31.40;;;9.10;;
5171;SDS011;2605;49.770;9.868;2024-01-15T05:07:17;22.47;;;9.27;;
5171;SDS011;2605;49.770;9.868;2024-01-15T05:09:42;19.17;;;6.07;;
5171;SDS011;2605;49.770;9.868;2024-01-15T05:12:07;27.83;;;10.83;;
5171;SDS011;2605;49.770;9.868;2024-01-15T05:14:33;21.93;;;9.47;;
5171;SDS011;2605;49.770;9.868;2024-01-15T05:17:01;28.43;;;11.97;;
5171;SDS011;2605;49.770;9.868;2024-01-15T05:19:26;28.10;;;13.00;;
5171;SDS011;2605;49.770;9.868;2024-01-15T05:21:52;20.93;;;10.77;;
5171;SDS011;2605;49.770;9.868;2024-01-15T05:24:17;12.53;;;8.40;;
5171;SDS011;2605;49.770;9.868;2024-01-15T05:26:43;24.47;;;10.90;;
5171;SDS011;2605;49.770;9.868;2024-01-15T05:29:08;32.00;;;12.47;;
5171;SDS011;2605;49.770;9.868;2024-01-15T05:31:35;28.90;;;13.53;;
5171;SDS011;2605;49.770;9.868;2024-01-15T05:34:01;10.47;;;7.60;;
5171;SDS011;2605;49.770;9.868;2024-01-15T05:36:26;31.60;;;13.20;;
5171;SDS011;2605;49.770;9.868;2024-01-15T05:38:51;17.13;;;8.50;;
5171;SDS011;2605;49.770;9.868;2024-01-15T05:41:17;23.47;;;10.47;;
5171;SDS011;2605;49.770;9.868;2024-01-15T05:43:43;21.43;;;10.53;;
5171;SDS011;2605;49.770;9.868;2024-01-15T05:46:08;15.30;;;8.23;;
5171;SDS011;2605;49.770;9.868;2024-01-15T05:48:34;21.60;;;11.70;;
5171;SDS011;2605;49.770;9.868;2024-01-15T05:50:59;22.97;;;12.20;;
5171;SDS011;2605;49.770;9.868;2024-01-15T05:53:25;23.20;;;8.40;;
5171;SDS011;2605;49.770;9.868;2024-01-15T05:55:50;27.03;;;13.10;;
5171;SDS011;2605;49.770;9.868;2024-01-15T05:58:16;8.83;;;6.07;;
5171;SDS011;2605;49.770;9.868;2024-01-15T06:00:41;21.63;;;12.97;;
5171;SDS011;2605;49.770;9.868;2024-01-15T06:03:07;21.60;;;10.53;;
5171;SDS011;2605;49.770;9.868;2024-01-15T06:05:32;28.17;;;11.30;;
5171;SDS011;2605;49.770;9.868;2024-01-15T06:07:58;23.03;;;11.73;;
5171;SDS011;2605;49.770;9.868;2024-01-15T06:10:23;14.37;;;10.37;;
5171;SDS011;2605;49.770;9.868;2024-01-15T06:12:49;17.70;;;10.67;;
5171;SDS011;2605;49.770;9.868;2024-01-15T06:15:14;17.53;;;9.03;;
5171;SDS011;2605;49.770;9.868;2024-01-15T06:17:40;16.27;;;8.53;;
5171;SDS011;2605;49.770;9.868;2024-01-15T06:20:06;26.23;;;12.87;;
5171;SDS011;2605;49.770;9.868;2024-01-15T06:22:32;28.17;;;12.60;;
5171;SDS011;2605;49.770;9.868;2024-01-15T06:25:01;18.33;;;8.13;;
5171;SDS011;2605;49.770;9.868;2024-01-15T06:27:27;25.03;;;13.00;;
5171;SDS011;2605;49.770;9.868;2024-01-15T06:29:53;25.87;;;10.67;;
5171;SDS011;2605;49.770;9.868;2024-01-15T06:32:20;18.77;;;10.10;;
5171;SDS011;2605;49.770;9.868;2024-01-15T06:34:46;25.90;;;12.50;;
5171;SDS011;2605;49.770;9.868;2024-01-15T06:37:11;23.73;;;13.03;;
5171;SDS011;2605;49.770;9.868;2024-01-15T06:39:37;27.47;;;9.13;;
5171;SDS011;2605;49.770;9.868;2024-01-15T06:42:02;22.73;;;12.50;;
5171;SDS011;2605;49.770;9.868;2024-01-15T06:44:28;20.97;;;11.03;;
5171;SDS011;2605;49.770;9.868;2024-01-15T06:46:53;27.30;;;11.97;;
5171;SDS011;2605;49.770;9.868;2024-01-15T06:49:22;15.07;;;7.50;;
5171;SDS011;2605;49.770;9.868;2024-01-15T06:51:48;24.07;;;9.70;;
5171;SDS011;2605;49.770;9.868;2024-01-15T06:54:14;12.93;;;6.60;;
5171;SDS011;2605;49.770;9.868;2024-01-15T06:56:39;20.50;;;9.00;;
5171;SDS011;2605;49.770;9.868;2024-01-15T06:59:05;21.90;;;12.33;;
5171;SDS011;2605;49.770;9.868;2024-01-15T07:01:30;19.83;;;11.80;;
5171;SDS011;2605;49.770;9.868;2024-01-15T07:03:56;14.83;;;8.43;;
5171;SDS011;2605;49.770;9.868;2024-01-15T07:06:21;14.90;;;10.40;;
5171;SDS011;2605;49.770;9.868;2024-01-15T07:08:47;15.93;;;7.40;;
5171;SDS011;2605;49.770;9.868;2024-01-15T07:11:14;18.67;;;9.10;;
5171;SDS011;2605;49.770;9.868;2024-01-15T07:13:40;12.37;;;6.17;;
5171;SDS011;2605;49.770;9.868;2024-01-15T07:16:05;35.37;;;8.37;;
5171;SDS011;2605;49.770;9.868;2024-01-15T07:18:32;22.97;;;11.37;;
5171;SDS011;2605;49.770;9.868;2024-01-15T07:20:57;17.97;;;7.87;;
5171;SDS011;2605;49.770;9.868;2024-01-15T07:23:24;18.63;;;7.13;;
5171;SDS011;2605;49.770;9.868;2024-01-15T07:25:49;27.50;;;12.80;;
5171;SDS011;2605;49.770;9.868;2024-01-15T07:28:15;18.17;;;7.70;;
5171;SDS011;2605;49.770;9.868;2024-01-15T07:30:40;26.13;;;10.80;;
5171;SDS011;2605;49.770;9.868;2024-01-15T07:33:06;15.67;;;7.97;;
5171;SDS011;2605;49.770;9.868;2024-01-15T07:35:31;17.70;;;8.33;;
5171;SDS011;2605;49.770;9.868;2024-01-15T07:37:57;32.83;;;12.27;;
5171;SDS011;2605;49.770;9.868;2024-01-15T07:40:22;15.00;;;8.07;;
5171;SDS011;2605;49.770;9.868;2024-01-15T07:42:49;24.00;;;11.10;;
5171;SDS011;2605;49.770;9.868;2024-01-15T07:45:15;17.97;;;9.37;;
5171;SDS011;2605;49.770;9.868;2024-01-15T07:47:41;26.37;;;10.30;;
5171;SDS011;2605;49.770;9.868;2024-01-15T07:50:06;15.50;;;8.07;;
5171;SDS011;2605;49.770;9.868;2024-01-15T07:52:32;10.40;;;6.00;;
5171;SDS011;2605;49.770;9.868;2024-01-15T07:54:57;21.47;;;12.17;;
5171;SDS011;2605;49.770;9.868;2024-01-15T07:57:28;13.00;;;7.30;;
5171;SDS011;2605;49.770;9.868;2024-01-15T07:59:54;20.47;;;9.60;;
5171;SDS011;2605;49.770;9.868;2024-01-15T08:02:19;7.77;;;5.80;;
5171;SDS011;2605;49.770;9.868;2024-01-15T08:04:45;32.80;;;12.57;;
5171;SDS011;2605;49.770;9.868;2024-01-15T08:07:10;18.13;;;9.87;;
5171;SDS011;2605;49.770;9.868;2024-01-15T08:09:36;15.80;;;7.77;;
5171;SDS011;2605;49.770;9.868;2024-01-15T08:12:02;17.13;;;7.57;;
5171;SDS011;2605;49.770;9.868;2024-01-15T08:14:27;17.67;;;8.47;;
5171;SDS011;2605;49.770;9.868;2024-01-15T08:16:53;18.10;;;8.50;;
5171;SDS011;2605;49.770;9.868;2024-01-15T08:19:18;9.07;;;3.73;;
5171;SDS011;2605;49.770;9.868;2024-01-15T08:21:47;12.43;;;7.27;;
5171;SDS011;2605;49.770;9.868;2024-01-15T08:24:14;11.13;;;5.20;;
5171;SDS011;2605;49.770;9.868;2024-01-15T08:26:40;18.73;;;10.50;;
5171;SDS011;2605;49.770;9.868;2024-01-15T08:29:05;26.20;;;10.97;;
5171;SDS011;2605;49.770;9.868;2024-01-15T08:31:31;9.37;;;5.50;;
5171;SDS011;2605;49.770;9.868;2024-01-15T08:33:56;20.77;;;11.00;;
5171;SDS011;2605;49.770;9.868;2024-01-15T08:36:22;15.93;;;10.33;;
5171;SDS011;2605;49.770;9.868;2024-01-15T08:38:49;26.20;;;11.53;;
5171;SDS011;2605;49.770;9.868;2024-01-15T08:41:14;12.80;;;6.37;;
5171;SDS011;2605;49.770;9.868;2024-01-15T08:43:40;19.47;;;8.40;;
5171;SDS011;2605;49.770;9.868;2024-01-15T08:46:05;18.63;;;8.40;;
5171;SDS011;2605;49.770;9.868;2024-01-15T08:48:32;12.43;;;5.00;;
5171;SDS011;2605;49.770;9.868;2024-01-15T08:50:57;26.73;;;10.10;;
5171;SDS011;2605;49.770;9.868;2024-01-15T08:53:23;4.17;;;3.77;;
5171;SDS011;2605;49.770;9.868;2024-01-15T08:55:48;17.93;;;9.27;;
5171;SDS011;2605;49.770;9.868;2024-01-15T08:58:17;16.13;;;6.47;;
5171;SDS011;2605;49.770;9.868;2024-01-15T09:00:42;14.53;;;7.47;;
5171;SDS011;2605;49.770;9.868;2024-01-15T09:03:08;23.80;;;11.10;;
5171;SDS011;2605;49.770;9.868;2024-01-15T09:05:34;12.43;;;6.60;;
5171;SDS011;2605;49.770;9.868;2024-01-15T09:08:00;10.13;;;6.90;;
5171;SDS011;2605;49.770;9.868;2024-01-15T09:10:25;23.10;;;10.73;;
5171;SDS011;2605;49.770;9.868;2024-01-15T09:12:51;21.37;;;8.53;;
5171;SDS011;2605;49.770;9.868;2024-01-15T09:15:16;12.47;;;6.87;;
5171;SDS011;2605;49.770;9.868;2024-01-15T09:17:42;24.30;;;12.50;;
5171;SDS011;2605;49.770;9.868;2024-01-15T09:20:08;18.23;;;10.67;;
5171;SDS011;2605;49.770;9.868;2024-01-15T09:22:34;27.20;;;7.57;;
5171;SDS011;2605;49.770;9.868;2024-01-15T09:25:00;22.70;;;9.90;;
5171;SDS011;2605;49.770;9.868;2024-01-15T09:27:26;19.70;;;10.00;;
5171;SDS011;2605;49.770;9.868;2024-01-15T09:29:54;34.23;;;13.30;;
5171;SDS011;2605;49.770;9.868;2024-01-15T09:32:20;13.17;;;7.67;;
5171;SDS011;2605;49.770;9.868;2024-01-15T09:34:45;13.80;;;6.90;;
5171;SDS011;2605;49.770;9.868;2024-01-15T09:37:11;22.63;;;10.40;;
5171;SDS011;2605;49.770;9.868;2024-01-15T09:39:39;9.97;;;7.37;;
5171;SDS011;2605;49.770;9.868;2024-01-15T09:42:04;16.57;;;8.80;;
5171;SDS011;2605;49.770;9.868;2024-01-15T09:44:30;17.90;;;6.40;;
5171;SDS011;2605;49.770;9.868;2024-01-15T09:46:56;18.03;;;7.90;;
5171;SDS011;2605;49.770;9.868;2024-01-15T09:49:23;14.77;;;8.07;;
5171;SDS011;2605;49.770;9.868;2024-01-15T09:51:48;14.40;;;7.77;;
5171;SDS011;2605;49.770;9.868;2024-01-15T09:54:18;15.50;;;9.87;;
5171;SDS011;2605;49.770;9.868;2024-01-15T09:56:47;12.80;;;7.80;;
5171;SDS011;2605;49.770;9.868;2024-01-15T09:59:15;20.10;;;9.80;;
5171;SDS011;2605;49.770;9.868;2024-01-15T10:01:42;16.77;;;9.33;;
5171;SDS011;2605;49.770;9.868;2024-01-15T10:04:09;11.53;;;7.57;;
5171;SDS011;2605;49.770;9.868;2024-01-15T10:06:35;13.97;;;7.17;;
5171;SDS011;2605;49.770;9.868;2024-01-15T10:09:01;19.33;;;9.90;;
5171;SDS011;2605;49.770;9.868;2024-01-15T10:11:28;17.30;;;8.33;;
5171;SDS011;2605;49.770;9.868;2024-01-15T10:13:56;19.20;;;9.17;;
5171;SDS011;2605;49.770;9.868;2024-01-15T10:16:22;17.93;;;9.70;;
5171;SDS011;2605;49.770;9.868;2024-01-15T10:18:49;19.33;;;9.70;;
5171;SDS011;2605;49.770;9.868;2024-01-15T10:21:14;9.57;;;5.83;;
5171;SDS011;2605;49.770;9.868;2024-01-15T10:23:40;16.03;;;7.80;;
5171;SDS011;2605;49.770;9.868;2024-01-15T10:26:06;10.97;;;5.60;;
5171;SDS011;2605;49.770;9.868;2024-01-15T10:28:32;13.90;;;7.43;;
5171;SDS011;2605;49.770;9.868;2024-01-15T10:30:58;18.33;;;8.27;;
5171;SDS011;2605;49.770;9.868;2024-01-15T10:33:24;23.50;;;10.80;;
5171;SDS011;2605;49.770;9.868;2024-01-15T10:35:50;13.33;;;8.63;;
5171;SDS011;2605;49.770;9.868;2024-01-15T10:38:20;12.23;;;6.20;;
5171;SDS011;2605;49.770;9.868;2024-01-15T10:40:47;14.23;;;7.60;;
5171;SDS011;2605;49.770;9.868;2024-01-15T10:43:16;17.53;;;8.90;;
5171;SDS011;2605;49.770;9.868;2024-01-15T10:45:43;16.17;;;9.73;;
5171;SDS011;2605;49.770;9.868;2024-01-15T10:48:13;10.03;;;7.50;;
5171;SDS011;2605;49.770;9.868;2024-01-15T10:50:42;12.03;;;5.00;;
5171;SDS011;2605;49.770;9.868;2024-01-15T10:53:09;20.60;;;8.50;;
5171;SDS011;2605;49.770;9.868;2024-01-15T10:55:37;15.93;;;8.83;;
5171;SDS011;2605;49.770;9.868;2024-01-15T10:58:04;14.83;;;10.43;;
5171;SDS011;2605;49.770;9.868;2024-01-15T11:00:32;16.23;;;10.47;;
5171;SDS011;2605;49.770;9.868;2024-01-15T11:03:00;24.10;;;10.63;;
5171;SDS011;2605;49.770;9.868;2024-01-15T11:05:26;18.87;;;8.50;;
5171;SDS011;2605;49.770;9.868;2024-01-15T11:07:54;23.13;;;10.67;;
5171;SDS011;2605;49.770;9.868;2024-01-15T11:13:08;18.50;;;8.87;;
5171;SDS011;2605;49.770;9.868;2024-01-15T11:16:00;20.40;;;8.87;;
5171;SDS011;2605;49.770;9.868;2024-01-15T11:18:28;10.00;;;5.60;;
5171;SDS011;2605;49.770;9.868;2024-01-15T11:23:44;24.87;;;9.23;;
5171;SDS011;2605;49.770;9.868;2024-01-15T11:29:11;12.80;;;6.57;;
5171;SDS011;2605;49.770;9.868;2024-01-15T11:34:20;19.50;;;6.97;;
5171;SDS011;2605;49.770;9.868;2024-01-15T11:41:56;14.57;;;8.40;;
5171;SDS011;2605;49.770;9.868;2024-01-15T11:44:23;17.73;;;9.03;;
5171;SDS011;2605;49.770;9.868;2024-01-15T11:47:02;11.07;;;7.40;;
5171;SDS011;2605;49.770;9.868;2024-01-15T11:52:34;8.10;;;6.60;;
5171;SDS011;2605;49.770;9.868;2024-01-15T11:57:51;12.27;;;6.40;;
5171;SDS011;2605;49.770;9.868;2024-01-15T12:00:21;11.37;;;6.63;;
5171;SDS011;2605;49.770;9.868;2024-01-15T12:02:48;13.70;;;6.70;;
5171;SDS011;2605;49.770;9.868;2024-01-15T12:05:16;8.07;;;5.23;;
5171;SDS011;2605;49.770;9.868;2024-01-15T12:07:44;12.90;;;7.00;;
5171;SDS011;2605;49.770;9.868;2024-01-15T12:10:15;12.50;;;6.93;;
5171;SDS011;2605;49.770;9.868;2024-01-15T12:15:21;7.17;;;4.70;;
5171;SDS011;2605;49.770;9.868;2024-01-15T12:17:46;10.10;;;6.60;;
5171;SDS011;2605;49.770;9.868;2024-01-15T12:20:12;7.90;;;5.17;;
5171;SDS011;2605;49.770;9.868;2024-01-15T12:22:38;12.67;;;8.10;;
5171;SDS011;2605;49.770;9.868;2024-01-15T12:25:04;11.17;;;7.10;;
5171;SDS011;2605;49.770;9.868;2024-01-15T12:27:30;10.80;;;6.60;;
5171;SDS011;2605;49.770;9.868;2024-01-15T12:29:57;8.27;;;5.03;;
5171;SDS011;2605;49.770;9.868;2024-01-15T12:32:23;11.70;;;7.03;;
5171;SDS011;2605;49.770;9.868;2024-01-15T12:34:49;22.17;;;4.37;;
5171;SDS011;2605;49.770;9.868;2024-01-15T12:37:19;14.63;;;7.30;;
5171;SDS011;2605;49.770;9.868;2024-01-15T12:39:45;14.13;;;5.67;;
5171;SDS011;2605;49.770;9.868;2024-01-15T12:42:11;11.10;;;6.10;;
5171;SDS011;2605;49.770;9.868;2024-01-15T12:44:36;7.60;;;6.40;;
5171;SDS011;2605;49.770;9.868;2024-01-15T12:47:04;7.07;;;4.67;;
5171;SDS011;2605;49.770;9.868;2024-01-15T12:49:30;4.30;;;2.90;;
5171;SDS011;2605;49.770;9.868;2024-01-15T12:51:56;9.73;;;5.80;;
5171;SDS011;2605;49.770;9.868;2024-01-15T12:54:22;9.47;;;4.37;;
5171;SDS011;2605;49.770;9.868;2024-01-15T12:56:49;6.57;;;5.40;;
5171;SDS011;2605;49.770;9.868;2024-01-15T12:59:14;8.03;;;4.63;;
5171;SDS011;2605;49.770;9.868;2024-01-15T13:01:40;6.10;;;4.50;;
5171;SDS011;2605;49.770;9.868;2024-01-15T13:04:06;4.23;;;3.77;;
5171;SDS011;2605;49.770;9.868;2024-01-15T13:06:33;8.23;;;6.30;;
5171;SDS011;2605;49.770;9.868;2024-01-15T13:08:59;7.30;;;4.77;;
5171;SDS011;2605;49.770;9.868;2024-01-15T13:11:25;5.53;;;3.60;;
5171;SDS011;2605;49.770;9.868;2024-01-15T13:13:51;6.10;;;4.10;;
5171;SDS011;2605;49.770;9.868;2024-01-15T13:16:17;7.37;;;5.53;;
5171;SDS011;2605;49.770;9.868;2024-01-15T13:18:42;6.60;;;4.60;;
5171;SDS011;2605;49.770;9.868;2024-01-15T13:21:08;7.30;;;4.70;;
5171;SDS011;2605;49.770;9.868;2024-01-15T13:23:33;7.50;;;6.20;;
5171;SDS011;2605;49.770;9.868;2024-01-15T13:26:02;4.77;;;3.43;;
5171;SDS011;2605;49.770;9.868;2024-01-15T13:28:27;7.20;;;4.20;;
5171;SDS011;2605;49.770;9.868;2024-01-15T13:30:53;5.10;;;4.17;;
5171;SDS011;2605;49.770;9.868;2024-01-15T13:33:18;7.20;;;4.87;;
5171;SDS011;2605;49.770;9.868;2024-01-15T13:35:44;7.20;;;5.43;;
5171;SDS011;2605;49.770;9.868;2024-01-15T13:38:10;8.53;;;6.10;;
5171;SDS011;2605;49.770;9.868;2024-01-15T13:40:36;9.00;;;4.00;;
5171;SDS011;2605;49.770;9.868;2024-01-15T13:43:01;6.40;;;4.63;;
5171;SDS011;2605;49.770;9.868;2024-01-15T13:45:27;6.53;;;5.10;;
5171;SDS011;2605;49.770;9.868;2024-01-15T13:47:53;6.23;;;5.33;;
5171;SDS011;2605;49.770;9.868;2024-01-15T13:50:18;7.10;;;5.13;;
5171;SDS011;2605;49.770;9.868;2024-01-15T13:52:44;4.20;;;2.90;;
5171;SDS011;2605;49.770;9.868;2024-01-15T13:55:10;6.53;;;4.40;;
5171;SDS011;2605;49.770;9.868;2024-01-15T13:57:35;4.87;;;3.83;;
5171;SDS011;2605;49.770;9.868;2024-01-15T14:00:01;3.73;;;3.33;;
5171;SDS011;2605;49.770;9.868;2024-01-15T14:02:27;4.47;;;4.07;;
5171;SDS011;2605;49.770;9.868;2024-01-15T14:04:52;5.40;;;4.90;;
5171;SDS011;2605;49.770;9.868;2024-01-15T14:07:19;9.57;;;6.03;;
5171;SDS011;2605;49.770;9.868;2024-01-15T14:09:44;8.40;;;5.90;;
5171;SDS011;2605;49.770;9.868;2024-01-15T14:12:10;6.77;;;5.03;;
5171;SDS011;2605;49.770;9.868;2024-01-15T14:14:36;4.80;;;4.33;;
5171;SDS011;2605;49.770;9.868;2024-01-15T14:17:02;9.33;;;5.90;;
5171;SDS011;2605;49.770;9.868;2024-01-15T14:19:27;13.17;;;8.00;;
5171;SDS011;2605;49.770;9.868;2024-01-15T14:21:53;8.70;;;5.63;;
5171;SDS011;2605;49.770;9.868;2024-01-15T14:24:21;11.50;;;7.10;;
5171;SDS011;2605;49.770;9.868;2024-01-15T14:26:47;8.63;;;6.10;;
5171;SDS011;2605;49.770;9.868;2024-01-15T14:29:12;12.47;;;8.33;;
5171;SDS011;2605;49.770;9.868;2024-01-15T14:31:38;10.43;;;7.23;;
5171;SDS011;2605;49.770;9.868;2024-01-15T14:34:03;11.30;;;7.20;;
5171;SDS011;2605;49.770;9.868;2024-01-15T14:36:29;10.33;;;5.53;;
5171;SDS011;2605;49.770;9.868;2024-01-15T14:38:55;15.80;;;6.90;;
5171;SDS011;2605;49.770;9.868;2024-01-15T14:41:20;12.80;;;5.40;;
5171;SDS011;2605;49.770;9.868;2024-01-15T14:43:45;8.00;;;6.60;;
5171;SDS011;2605;49.770;9.868;2024-01-15T14:46:11;11.07;;;8.07;;
5171;SDS011;2605;49.770;9.868;2024-01-15T14:48:36;11.93;;;7.97;;
5171;SDS011;2605;49.770;9.868;2024-01-15T14:51:02;8.03;;;7.23;;
5171;SDS011;2605;49.770;9.868;2024-01-15T14:53:28;6.50;;;4.67;;
5171;SDS011;2605;49.770;9.868;2024-01-15T14:55:53;12.97;;;8.30;;
5171;SDS011;2605;49.770;9.868;2024-01-15T14:58:19;8.07;;;5.30;;
5171;SDS011;2605;49.770;9.868;2024-01-15T15:00:45;16.87;;;8.90;;
5171;SDS011;2605;49.770;9.868;2024-01-15T15:03:11;9.30;;;7.23;;
5171;SDS011;2605;49.770;9.868;2024-01-15T15:05:38;11.97;;;8.50;;
5171;SDS011;2605;49.770;9.868;2024-01-15T15:08:04;4.17;;;3.73;;
5171;SDS011;2605;49.770;9.868;2024-01-15T15:10:33;8.63;;;4.90;;
5171;SDS011;2605;49.770;9.868;2024-01-15T15:12:59;10.23;;;6.83;;
5171;SDS011;2605;49.770;9.868;2024-01-15T15:15:25;8.40;;;5.50;;